Terminal Aerodrome Forecast
Issued by NWS

Home | Current Version | Previous Version | Text Only | Print | Product List | Glossary On
Versions: 1 2 3 4 5 6 7 8 9 10 11 12 13 14 15
285
FTUS43 KGRR 241124
TAFJXN
TAF
KJXN 241124Z 2412/2512 07004KT 5SM BR VCSH BKN120 BKN250
     FM241400 09007KT P6SM VCSH BKN090
     FM241600 09008KT 6SM -SHRA VCTS BKN070CB
     FM241800 07009KT P6SM VCTS OVC035CB
     FM250300 06010KT 6SM -SHRA OVC008
     FM250500 05010KT 2SM -SHRA BR OVC003=

USA.gov is the U.S. government's official web portal to all federal, state and local government web resources and services.